sensor_id;sensor_type;location;lat;lon;timestamp;temperature;humidity
38237;DHT22;50101;49.438;11.098;2022-12-18T00:01:21;17.50;50.40
38237;DHT22;50101;49.438;11.098;2022-12-18T00:03:50;17.40;50.70
38237;DHT22;50101;49.438;11.098;2022-12-18T00:06:17;17.40;51.30
38237;DHT22;50101;49.438;11.098;2022-12-18T00:08:44;17.40;50.90
38237;DHT22;50101;49.438;11.098;2022-12-18T00:11:14;17.40;50.60
38237;DHT22;50101;49.438;11.098;2022-12-18T00:13:41;17.40;50.70
38237;DHT22;50101;49.438;11.098;2022-12-18T00:16:11;17.50;50.60
38237;DHT22;50101;49.438;11.098;2022-12-18T00:18:37;17.40;50.50
38237;DHT22;50101;49.438;11.098;2022-12-18T00:21:07;17.40;50.40
38237;DHT22;50101;49.438;11.098;2022-12-18T00:23:34;17.40;50.30
38237;DHT22;50101;49.438;11.098;2022-12-18T00:26:04;17.40;50.30
38237;DHT22;50101;49.438;11.098;2022-12-18T00:28:31;17.40;50.30
38237;DHT22;50101;49.438;11.098;2022-12-18T00:31:06;17.40;50.30
38237;DHT22;50101;49.438;11.098;2022-12-18T00:33:34;17.40;50.30
38237;DHT22;50101;49.438;11.098;2022-12-18T00:36:03;17.40;50.30
38237;DHT22;50101;49.438;11.098;2022-12-18T00:38:30;17.30;50.00
38237;DHT22;50101;49.438;11.098;2022-12-18T00:40:57;17.30;50.00
38237;DHT22;50101;49.438;11.098;2022-12-18T00:43:23;17.30;50.00
38237;DHT22;50101;49.438;11.098;2022-12-18T00:45:50;17.40;50.00
38237;DHT22;50101;49.438;11.098;2022-12-18T00:48:17;17.40;49.90
38237;DHT22;50101;49.438;11.098;2022-12-18T00:50:43;17.30;49.90
38237;DHT22;50101;49.438;11.098;2022-12-18T00:53:11;17.30;49.80
38237;DHT22;50101;49.438;11.098;2022-12-18T00:55:39;17.30;49.90
38237;DHT22;50101;49.438;11.098;2022-12-18T00:58:06;17.30;49.80
38237;DHT22;50101;49.438;11.098;2022-12-18T01:00:33;17.30;49.80
38237;DHT22;50101;49.438;11.098;2022-12-18T01:03:00;17.30;49.70
38237;DHT22;50101;49.438;11.098;2022-12-18T01:05:27;17.30;49.70
38237;DHT22;50101;49.438;11.098;2022-12-18T01:07:55;17.30;49.70
38237;DHT22;50101;49.438;11.098;2022-12-18T01:10:23;17.30;49.00
38237;DHT22;50101;49.438;11.098;2022-12-18T01:12:50;17.20;49.40
38237;DHT22;50101;49.438;11.098;2022-12-18T01:15:17;17.20;49.40
38237;DHT22;50101;49.438;11.098;2022-12-18T01:17:43;17.20;49.50
38237;DHT22;50101;49.438;11.098;2022-12-18T01:20:12;17.20;49.60
38237;DHT22;50101;49.438;11.098;2022-12-18T01:22:39;17.20;49.50
38237;DHT22;50101;49.438;11.098;2022-12-18T01:25:06;17.20;49.40
38237;DHT22;50101;49.438;11.098;2022-12-18T01:27:33;17.20;49.40
38237;DHT22;50101;49.438;11.098;2022-12-18T01:30:00;17.20;49.40
38237;DHT22;50101;49.438;11.098;2022-12-18T01:32:30;17.20;49.40
38237;DHT22;50101;49.438;11.098;2022-12-18T01:34:57;17.20;49.40
38237;DHT22;50101;49.438;11.098;2022-12-18T01:37:23;17.20;49.30
38237;DHT22;50101;49.438;11.098;2022-12-18T01:39:52;17.20;48.80
38237;DHT22;50101;49.438;11.098;2022-12-18T01:42:21;17.20;49.30
38237;DHT22;50101;49.438;11.098;2022-12-18T01:50:19;17.10;48.60
38237;DHT22;50101;49.438;11.098;2022-12-18T01:52:55;17.20;49.20
38237;DHT22;50101;49.438;11.098;2022-12-18T01:55:25;17.10;49.20
38237;DHT22;50101;49.438;11.098;2022-12-18T01:57:55;17.10;49.10
38237;DHT22;50101;49.438;11.098;2022-12-18T02:00:23;17.10;49.10
38237;DHT22;50101;49.438;11.098;2022-12-18T02:02:51;17.10;49.10
38237;DHT22;50101;49.438;11.098;2022-12-18T02:05:50;17.10;49.10
38237;DHT22;50101;49.438;11.098;2022-12-18T02:09:19;17.10;49.00
38237;DHT22;50101;49.438;11.098;2022-12-18T02:14:11;17.10;48.90
38237;DHT22;50101;49.438;11.098;2022-12-18T02:16:52;17.10;48.90
38237;DHT22;50101;49.438;11.098;2022-12-18T02:19:53;17.10;49.00
38237;DHT22;50101;49.438;11.098;2022-12-18T02:24:59;17.10;48.80
38237;DHT22;50101;49.438;11.098;2022-12-18T02:27:30;17.00;48.70
38237;DHT22;50101;49.438;11.098;2022-12-18T02:29:59;17.00;48.30
38237;DHT22;50101;49.438;11.098;2022-12-18T02:32:51;17.00;48.70
38237;DHT22;50101;49.438;11.098;2022-12-18T02:35:27;17.00;48.80
38237;DHT22;50101;49.438;11.098;2022-12-18T02:37:57;17.00;48.80
38237;DHT22;50101;49.438;11.098;2022-12-18T02:40:26;17.00;48.80
38237;DHT22;50101;49.438;11.098;2022-12-18T02:42:53;17.00;48.80
38237;DHT22;50101;49.438;11.098;2022-12-18T02:45:20;17.00;48.80
38237;DHT22;50101;49.438;11.098;2022-12-18T02:47:48;17.00;48.80
38237;DHT22;50101;49.438;11.098;2022-12-18T02:50:50;17.00;48.70
38237;DHT22;50101;49.438;11.098;2022-12-18T02:53:36;17.00;48.70
38237;DHT22;50101;49.438;11.098;2022-12-18T02:56:18;17.00;48.60
38237;DHT22;50101;49.438;11.098;2022-12-18T02:58:59;17.00;48.60
38237;DHT22;50101;49.438;11.098;2022-12-18T03:07:07;16.90;48.60
38237;DHT22;50101;49.438;11.098;2022-12-18T03:09:37;16.90;48.60
38237;DHT22;50101;49.438;11.098;2022-12-18T03:12:21;16.90;48.60
38237;DHT22;50101;49.438;11.098;2022-12-18T03:17:51;16.90;48.60
38237;DHT22;50101;49.438;11.098;2022-12-18T03:20:20;16.90;48.50
38237;DHT22;50101;49.438;11.098;2022-12-18T03:22:52;16.90;48.40
38237;DHT22;50101;49.438;11.098;2022-12-18T03:25:20;16.90;48.50
38237;DHT22;50101;49.438;11.098;2022-12-18T03:27:51;16.90;48.50
38237;DHT22;50101;49.438;11.098;2022-12-18T03:30:20;16.90;48.00
38237;DHT22;50101;49.438;11.098;2022-12-18T03:32:48;16.90;48.50
38237;DHT22;50101;49.438;11.098;2022-12-18T03:35:39;16.90;48.50
38237;DHT22;50101;49.438;11.098;2022-12-18T03:38:06;16.80;48.50
38237;DHT22;50101;49.438;11.098;2022-12-18T03:46:28;16.90;48.40
38237;DHT22;50101;49.438;11.098;2022-12-18T03:51:54;16.80;48.30
38237;DHT22;50101;49.438;11.098;2022-12-18T03:54:23;16.90;48.30
38237;DHT22;50101;49.438;11.098;2022-12-18T03:56:57;16.80;48.30
38237;DHT22;50101;49.438;11.098;2022-12-18T03:59:26;16.90;48.20
38237;DHT22;50101;49.438;11.098;2022-12-18T04:01:54;16.80;48.20
38237;DHT22;50101;49.438;11.098;2022-12-18T04:04:24;16.80;48.20
38237;DHT22;50101;49.438;11.098;2022-12-18T04:06:53;16.80;48.20
38237;DHT22;50101;49.438;11.098;2022-12-18T04:09:20;16.90;48.20
38237;DHT22;50101;49.438;11.098;2022-12-18T04:11:47;16.80;47.60
38237;DHT22;50101;49.438;11.098;2022-12-18T04:14:14;16.80;48.20
38237;DHT22;50101;49.438;11.098;2022-12-18T04:16:44;16.90;48.80
38237;DHT22;50101;49.438;11.098;2022-12-18T04:19:10;16.80;48.20
38237;DHT22;50101;49.438;11.098;2022-12-18T04:21:37;16.80;48.20
38237;DHT22;50101;49.438;11.098;2022-12-18T04:24:04;16.80;48.20
38237;DHT22;50101;49.438;11.098;2022-12-18T04:26:31;16.80;48.10
38237;DHT22;50101;49.438;11.098;2022-12-18T04:28:57;16.80;48.20
38237;DHT22;50101;49.438;11.098;2022-12-18T04:31:24;16.80;48.20
38237;DHT22;50101;49.438;11.098;2022-12-18T04:33:51;16.80;48.20
38237;DHT22;50101;49.438;11.098;2022-12-18T04:36:18;16.80;48.10
38237;DHT22;50101;49.438;11.098;2022-12-18T04:38:44;16.80;48.00
38237;DHT22;50101;49.438;11.098;2022-12-18T04:41:11;16.80;47.50
38237;DHT22;50101;49.438;11.098;2022-12-18T04:43:38;16.90;48.00
38237;DHT22;50101;49.438;11.098;2022-12-18T04:46:06;16.80;48.00
38237;DHT22;50101;49.438;11.098;2022-12-18T04:48:34;16.80;48.10
38237;DHT22;50101;49.438;11.098;2022-12-18T04:51:01;16.80;47.60
38237;DHT22;50101;49.438;11.098;2022-12-18T04:53:28;16.80;48.10
38237;DHT22;50101;49.438;11.098;2022-12-18T04:56:11;15.30;46.80
38237;DHT22;50101;49.438;11.098;2022-12-18T04:58:40;16.80;48.10
38237;DHT22;50101;49.438;11.098;2022-12-18T05:01:07;16.80;48.10
38237;DHT22;50101;49.438;11.098;2022-12-18T05:03:35;16.80;48.00
38237;DHT22;50101;49.438;11.098;2022-12-18T05:06:03;16.80;48.00
38237;DHT22;50101;49.438;11.098;2022-12-18T05:08:30;16.80;48.00
38237;DHT22;50101;49.438;11.098;2022-12-18T05:11:08;16.80;48.00
38237;DHT22;50101;49.438;11.098;2022-12-18T05:13:36;16.80;48.00
38237;DHT22;50101;49.438;11.098;2022-12-18T05:16:05;16.80;48.00
38237;DHT22;50101;49.438;11.098;2022-12-18T05:18:32;16.70;47.90
38237;DHT22;50101;49.438;11.098;2022-12-18T05:20:58;16.80;48.00
38237;DHT22;50101;49.438;11.098;2022-12-18T05:23:26;16.70;47.90
38237;DHT22;50101;49.438;11.098;2022-12-18T05:25:58;16.80;48.00
38237;DHT22;50101;49.438;11.098;2022-12-18T05:28:26;16.80;48.00
38237;DHT22;50101;49.438;11.098;2022-12-18T05:30:56;16.80;48.00
38237;DHT22;50101;49.438;11.098;2022-12-18T05:33:25;16.70;47.90
38237;DHT22;50101;49.438;11.098;2022-12-18T05:35:54;16.70;47.90
38237;DHT22;50101;49.438;11.098;2022-12-18T05:38:22;16.80;47.90
38237;DHT22;50101;49.438;11.098;2022-12-18T05:40:49;16.80;47.90
38237;DHT22;50101;49.438;11.098;2022-12-18T05:43:17;16.80;47.90
38237;DHT22;50101;49.438;11.098;2022-12-18T05:45:47;16.80;47.90
38237;DHT22;50101;49.438;11.098;2022-12-18T05:48:15;16.70;47.80
38237;DHT22;50101;49.438;11.098;2022-12-18T05:50:43;16.70;47.30
38237;DHT22;50101;49.438;11.098;2022-12-18T05:53:13;16.70;47.80
38237;DHT22;50101;49.438;11.098;2022-12-18T05:55:41;16.70;47.90
38237;DHT22;50101;49.438;11.098;2022-12-18T05:58:09;16.70;47.90
38237;DHT22;50101;49.438;11.098;2022-12-18T06:00:38;16.70;47.80
38237;DHT22;50101;49.438;11.098;2022-12-18T06:03:07;16.70;47.80
38237;DHT22;50101;49.438;11.098;2022-12-18T06:05:36;16.70;47.90
38237;DHT22;50101;49.438;11.098;2022-12-18T06:08:03;16.70;47.90
38237;DHT22;50101;49.438;11.098;2022-12-18T06:10:31;16.70;48.00
38237;DHT22;50101;49.438;11.098;2022-12-18T06:12:58;16.70;48.00
38237;DHT22;50101;49.438;11.098;2022-12-18T06:15:24;16.70;48.10
38237;DHT22;50101;49.438;11.098;2022-12-18T06:17:51;16.70;48.10
38237;DHT22;50101;49.438;11.098;2022-12-18T06:20:17;16.70;48.10
38237;DHT22;50101;49.438;11.098;2022-12-18T06:22:44;16.70;48.10
38237;DHT22;50101;49.438;11.098;2022-12-18T06:25:11;16.70;48.10
38237;DHT22;50101;49.438;11.098;2022-12-18T06:27:38;16.70;48.10
38237;DHT22;50101;49.438;11.098;2022-12-18T06:30:05;16.70;48.10
38237;DHT22;50101;49.438;11.098;2022-12-18T06:32:32;16.70;48.20
38237;DHT22;50101;49.438;11.098;2022-12-18T06:34:59;16.70;48.10
38237;DHT22;50101;49.438;11.098;2022-12-18T06:37:26;16.70;48.10
38237;DHT22;50101;49.438;11.098;2022-12-18T06:39:55;16.70;48.10
38237;DHT22;50101;49.438;11.098;2022-12-18T06:42:23;16.70;48.10
38237;DHT22;50101;49.438;11.098;2022-12-18T06:44:50;16.70;48.30
38237;DHT22;50101;49.438;11.098;2022-12-18T06:47:17;16.70;48.20
38237;DHT22;50101;49.438;11.098;2022-12-18T06:49:44;16.70;48.30
38237;DHT22;50101;49.438;11.098;2022-12-18T06:52:11;16.70;48.40
38237;DHT22;50101;49.438;11.098;2022-12-18T06:54:38;16.70;48.40
38237;DHT22;50101;49.438;11.098;2022-12-18T06:57:04;16.70;48.30
38237;DHT22;50101;49.438;11.098;2022-12-18T06:59:31;16.70;48.30
38237;DHT22;50101;49.438;11.098;2022-12-18T07:01:57;16.70;48.30
38237;DHT22;50101;49.438;11.098;2022-12-18T07:04:31;16.70;48.40
38237;DHT22;50101;49.438;11.098;2022-12-18T07:06:57;16.70;48.40
38237;DHT22;50101;49.438;11.098;2022-12-18T07:09:24;16.70;48.50
38237;DHT22;50101;49.438;11.098;2022-12-18T07:11:52;16.70;48.40
38237;DHT22;50101;49.438;11.098;2022-12-18T07:14:19;16.70;48.50
38237;DHT22;50101;49.438;11.098;2022-12-18T07:16:45;16.70;48.50
38237;DHT22;50101;49.438;11.098;2022-12-18T07:19:12;16.70;48.50
38237;DHT22;50101;49.438;11.098;2022-12-18T07:21:39;16.70;48.60
38237;DHT22;50101;49.438;11.098;2022-12-18T07:24:06;16.80;48.10
38237;DHT22;50101;49.438;11.098;2022-12-18T07:26:33;16.80;48.60
38237;DHT22;50101;49.438;11.098;2022-12-18T07:29:00;16.70;48.50
38237;DHT22;50101;49.438;11.098;2022-12-18T07:31:27;16.80;48.10
38237;DHT22;50101;49.438;11.098;2022-12-18T07:33:55;16.80;48.60
38237;DHT22;50101;49.438;11.098;2022-12-18T07:36:23;16.80;48.60
38237;DHT22;50101;49.438;11.098;2022-12-18T07:38:50;16.80;48.60
38237;DHT22;50101;49.438;11.098;2022-12-18T07:41:18;16.80;48.50
38237;DHT22;50101;49.438;11.098;2022-12-18T07:43:45;16.80;48.60
38237;DHT22;50101;49.438;11.098;2022-12-18T07:46:13;16.80;48.60
38237;DHT22;50101;49.438;11.098;2022-12-18T07:48:41;16.80;48.70
38237;DHT22;50101;49.438;11.098;2022-12-18T07:51:10;16.80;48.70
38237;DHT22;50101;49.438;11.098;2022-12-18T07:53:37;16.80;48.70
38237;DHT22;50101;49.438;11.098;2022-12-18T07:56:07;16.80;48.70
38237;DHT22;50101;49.438;11.098;2022-12-18T07:58:55;16.80;48.70
38237;DHT22;50101;49.438;11.098;2022-12-18T08:01:22;16.90;48.90
38237;DHT22;50101;49.438;11.098;2022-12-18T08:03:49;16.80;49.00
38237;DHT22;50101;49.438;11.098;2022-12-18T08:06:18;16.90;48.90
38237;DHT22;50101;49.438;11.098;2022-12-18T08:08:51;16.90;49.00
38237;DHT22;50101;49.438;11.098;2022-12-18T08:11:18;16.90;49.00
38237;DHT22;50101;49.438;11.098;2022-12-18T08:13:47;16.90;48.90
38237;DHT22;50101;49.438;11.098;2022-12-18T08:16:15;16.90;49.00
38237;DHT22;50101;49.438;11.098;2022-12-18T08:18:42;16.90;49.00
38237;DHT22;50101;49.438;11.098;2022-12-18T08:21:12;16.90;49.00
38237;DHT22;50101;49.438;11.098;2022-12-18T08:23:39;16.90;49.00
38237;DHT22;50101;49.438;11.098;2022-12-18T08:26:10;16.90;49.00
38237;DHT22;50101;49.438;11.098;2022-12-18T08:28:36;17.00;49.10
38237;DHT22;50101;49.438;11.098;2022-12-18T08:31:04;17.00;49.10
38237;DHT22;50101;49.438;11.098;2022-12-18T08:33:31;17.00;49.10
38237;DHT22;50101;49.438;11.098;2022-12-18T08:35:59;17.00;49.10
38237;DHT22;50101;49.438;11.098;2022-12-18T08:38:26;17.00;49.10
38237;DHT22;50101;49.438;11.098;2022-12-18T08:41:04;17.00;49.10
38237;DHT22;50101;49.438;11.098;2022-12-18T08:43:31;17.00;49.10
38237;DHT22;50101;49.438;11.098;2022-12-18T08:46:17;17.00;49.10
38237;DHT22;50101;49.438;11.098;2022-12-18T08:48:45;17.00;49.10
38237;DHT22;50101;49.438;11.098;2022-12-18T08:51:12;17.00;49.10
38237;DHT22;50101;49.438;11.098;2022-12-18T08:53:38;17.10;49.20
38237;DHT22;50101;49.438;11.098;2022-12-18T08:56:06;17.10;49.10
38237;DHT22;50101;49.438;11.098;2022-12-18T08:58:33;17.10;49.10
38237;DHT22;50101;49.438;11.098;2022-12-18T09:01:01;17.10;49.20
38237;DHT22;50101;49.438;11.098;2022-12-18T09:03:29;17.10;49.20
38237;DHT22;50101;49.438;11.098;2022-12-18T09:05:55;17.10;49.10
38237;DHT22;50101;49.438;11.098;2022-12-18T09:08:22;17.10;49.20
38237;DHT22;50101;49.438;11.098;2022-12-18T09:10:50;17.20;49.20
38237;DHT22;50101;49.438;11.098;2022-12-18T09:13:17;17.10;49.10
38237;DHT22;50101;49.438;11.098;2022-12-18T09:15:48;17.20;49.20
38237;DHT22;50101;49.438;11.098;2022-12-18T09:18:17;17.20;49.20
38237;DHT22;50101;49.438;11.098;2022-12-18T09:20:44;17.20;49.10
38237;DHT22;50101;49.438;11.098;2022-12-18T09:23:12;17.20;49.20
38237;DHT22;50101;49.438;11.098;2022-12-18T09:25:39;17.20;49.30
38237;DHT22;50101;49.438;11.098;2022-12-18T09:28:11;17.20;49.30
38237;DHT22;50101;49.438;11.098;2022-12-18T09:30:39;17.20;49.40
38237;DHT22;50101;49.438;11.098;2022-12-18T09:33:06;17.20;49.40
38237;DHT22;50101;49.438;11.098;2022-12-18T09:35:40;17.20;49.40
38237;DHT22;50101;49.438;11.098;2022-12-18T09:38:09;17.20;49.40
38237;DHT22;50101;49.438;11.098;2022-12-18T09:40:49;17.20;49.40
38237;DHT22;50101;49.438;11.098;2022-12-18T09:43:46;17.20;49.40
38237;DHT22;50101;49.438;11.098;2022-12-18T09:46:36;17.20;49.40
38237;DHT22;50101;49.438;11.098;2022-12-18T09:49:09;17.20;49.40
38237;DHT22;50101;49.438;11.098;2022-12-18T09:54:19;17.30;49.50
38237;DHT22;50101;49.438;11.098;2022-12-18T09:56:46;17.30;49.40
38237;DHT22;50101;49.438;11.098;2022-12-18T10:01:46;17.30;49.30
38237;DHT22;50101;49.438;11.098;2022-12-18T10:04:13;17.30;49.30
38237;DHT22;50101;49.438;11.098;2022-12-18T10:06:49;17.30;49.30
38237;DHT22;50101;49.438;11.098;2022-12-18T10:09:33;17.40;49.30
38237;DHT22;50101;49.438;11.098;2022-12-18T10:12:23;17.40;49.40
38237;DHT22;50101;49.438;11.098;2022-12-18T10:15:01;17.40;49.40
38237;DHT22;50101;49.438;11.098;2022-12-18T10:18:03;17.40;49.40
38237;DHT22;50101;49.438;11.098;2022-12-18T10:20:41;17.40;49.70
38237;DHT22;50101;49.438;11.098;2022-12-18T10:28:29;17.40;49.60
38237;DHT22;50101;49.438;11.098;2022-12-18T10:30:57;17.40;49.60
38237;DHT22;50101;49.438;11.098;2022-12-18T10:33:28;17.50;49.80
38237;DHT22;50101;49.438;11.098;2022-12-18T10:35:56;17.50;49.70
38237;DHT22;50101;49.438;11.098;2022-12-18T10:38:31;17.50;49.70
38237;DHT22;50101;49.438;11.098;2022-12-18T10:41:06;17.50;49.20
38237;DHT22;50101;49.438;11.098;2022-12-18T10:43:39;17.50;49.90
38237;DHT22;50101;49.438;11.098;2022-12-18T10:51:08;17.60;49.80
38237;DHT22;50101;49.438;11.098;2022-12-18T10:53:40;17.60;49.80
38237;DHT22;50101;49.438;11.098;2022-12-18T10:56:08;17.60;49.80
38237;DHT22;50101;49.438;11.098;2022-12-18T10:58:37;17.60;49.70
38237;DHT22;50101;49.438;11.098;2022-12-18T11:01:13;17.70;49.80
38237;DHT22;50101;49.438;11.098;2022-12-18T11:03:47;17.70;49.70
38237;DHT22;50101;49.438;11.098;2022-12-18T11:06:28;17.70;49.80
38237;DHT22;50101;49.438;11.098;2022-12-18T11:09:24;17.80;49.90
38237;DHT22;50101;49.438;11.098;2022-12-18T11:11:53;17.80;49.90
38237;DHT22;50101;49.438;11.098;2022-12-18T11:14:24;17.80;49.80
38237;DHT22;50101;49.438;11.098;2022-12-18T11:16:52;17.80;49.90
38237;DHT22;50101;49.438;11.098;2022-12-18T11:19:40;17.90;49.60
38237;DHT22;50101;49.438;11.098;2022-12-18T11:22:22;17.80;50.00
38237;DHT22;50101;49.438;11.098;2022-12-18T11:25:01;17.90;50.00
38237;DHT22;50101;49.438;11.098;2022-12-18T11:27:52;17.90;50.00
38237;DHT22;50101;49.438;11.098;2022-12-18T11:30:29;18.00;50.30
38237;DHT22;50101;49.438;11.098;2022-12-18T11:33:10;17.40;49.70
38237;DHT22;50101;49.438;11.098;2022-12-18T11:35:42;18.00;50.20
38237;DHT22;50101;49.438;11.098;2022-12-18T11:41:02;17.90;49.60
38237;DHT22;50101;49.438;11.098;2022-12-18T11:43:38;17.90;50.20
38237;DHT22;50101;49.438;11.098;2022-12-18T11:46:12;17.90;50.00
38237;DHT22;50101;49.438;11.098;2022-12-18T11:48:51;18.00;50.10
38237;DHT22;50101;49.438;11.098;2022-12-18T11:51:26;18.00;50.10
38237;DHT22;50101;49.438;11.098;2022-12-18T11:53:55;18.10;50.20
38237;DHT22;50101;49.438;11.098;2022-12-18T11:56:41;18.00;50.00
38237;DHT22;50101;49.438;11.098;2022-12-18T11:59:38;18.00;50.10
38237;DHT22;50101;49.438;11.098;2022-12-18T12:02:23;18.00;50.10
38237;DHT22;50101;49.438;11.098;2022-12-18T12:07:59;18.10;50.20
38237;DHT22;50101;49.438;11.098;2022-12-18T12:13:08;18.00;50.00
38237;DHT22;50101;49.438;11.098;2022-12-18T12:15:44;18.00;50.00
38237;DHT22;50101;49.438;11.098;2022-12-18T12:26:18;18.10;50.50
38237;DHT22;50101;49.438;11.098;2022-12-18T12:34:23;18.00;50.40
38237;DHT22;50101;49.438;11.098;2022-12-18T12:39:25;18.10;51.00
38237;DHT22;50101;49.438;11.098;2022-12-18T12:41:55;18.10;51.10
38237;DHT22;50101;49.438;11.098;2022-12-18T12:44:46;18.10;51.40
38237;DHT22;50101;49.438;11.098;2022-12-18T12:47:42;18.10;51.80
38237;DHT22;50101;49.438;11.098;2022-12-18T12:50:17;18.10;52.00
38237;DHT22;50101;49.438;11.098;2022-12-18T12:52:49;18.00;51.90
38237;DHT22;50101;49.438;11.098;2022-12-18T12:55:21;18.10;52.10
38237;DHT22;50101;49.438;11.098;2022-12-18T12:58:21;18.00;52.20
38237;DHT22;50101;49.438;11.098;2022-12-18T13:00:58;18.10;52.30
38237;DHT22;50101;49.438;11.098;2022-12-18T13:09:10;18.00;52.50
38237;DHT22;50101;49.438;11.098;2022-12-18T13:14:28;18.10;52.60
38237;DHT22;50101;49.438;11.098;2022-12-18T13:19:42;18.10;52.60
38237;DHT22;50101;49.438;11.098;2022-12-18T13:22:24;18.10;52.40
38237;DHT22;50101;49.438;11.098;2022-12-18T13:24:51;18.00;52.50
38237;DHT22;50101;49.438;11.098;2022-12-18T13:36:04;18.10;52.10
38237;DHT22;50101;49.438;11.098;2022-12-18T13:38:37;18.10;52.00
38237;DHT22;50101;49.438;11.098;2022-12-18T13:43:46;18.00;51.90
38237;DHT22;50101;49.438;11.098;2022-12-18T13:46:28;18.10;51.90
38237;DHT22;50101;49.438;11.098;2022-12-18T13:51:44;18.10;51.80
38237;DHT22;50101;49.438;11.098;2022-12-18T13:54:36;18.00;51.50
38237;DHT22;50101;49.438;11.098;2022-12-18T13:57:05;18.00;51.50
38237;DHT22;50101;49.438;11.098;2022-12-18T13:59:38;18.00;51.50
38237;DHT22;50101;49.438;11.098;2022-12-18T14:02:27;18.00;51.50
38237;DHT22;50101;49.438;11.098;2022-12-18T14:04:55;18.00;51.50
38237;DHT22;50101;49.438;11.098;2022-12-18T14:07:26;18.00;51.50
38237;DHT22;50101;49.438;11.098;2022-12-18T14:10:00;18.00;51.50
38237;DHT22;50101;49.438;11.098;2022-12-18T14:12:48;18.00;51.50
38237;DHT22;50101;49.438;11.098;2022-12-18T14:21:02;18.00;51.10
38237;DHT22;50101;49.438;11.098;2022-12-18T14:23:30;18.00;51.60
38237;DHT22;50101;49.438;11.098;2022-12-18T14:25:58;18.00;51.60
38237;DHT22;50101;49.438;11.098;2022-12-18T14:28:31;17.90;51.50
38237;DHT22;50101;49.438;11.098;2022-12-18T14:30:58;17.90;51.50
38237;DHT22;50101;49.438;11.098;2022-12-18T14:33:27;17.90;51.60
38237;DHT22;50101;49.438;11.098;2022-12-18T14:38:36;17.90;51.80
38237;DHT22;50101;49.438;11.098;2022-12-18T14:41:10;17.90;51.10
38237;DHT22;50101;49.438;11.098;2022-12-18T14:43:42;17.90;51.70
38237;DHT22;50101;49.438;11.098;2022-12-18T14:46:33;17.90;51.80
38237;DHT22;50101;49.438;11.098;2022-12-18T14:49:23;17.90;51.80
38237;DHT22;50101;49.438;11.098;2022-12-18T14:51:57;17.90;51.90
38237;DHT22;50101;49.438;11.098;2022-12-18T14:54:25;17.90;51.80
38237;DHT22;50101;49.438;11.098;2022-12-18T14:57:21;17.90;51.80
38237;DHT22;50101;49.438;11.098;2022-12-18T14:59:49;17.90;51.80
38237;DHT22;50101;49.438;11.098;2022-12-18T15:02:18;17.90;51.80
38237;DHT22;50101;49.438;11.098;2022-12-18T15:04:47;17.80;51.90
38237;DHT22;50101;49.438;11.098;2022-12-18T15:07:20;17.90;52.00
38237;DHT22;50101;49.438;11.098;2022-12-18T15:18:05;18.00;52.70
38237;DHT22;50101;49.438;11.098;2022-12-18T15:20:52;17.90;52.80
38237;DHT22;50101;49.438;11.098;2022-12-18T15:23:38;17.90;52.90
38237;DHT22;50101;49.438;11.098;2022-12-18T15:26:11;17.90;52.80
38237;DHT22;50101;49.438;11.098;2022-12-18T15:36:22;17.90;53.60
38237;DHT22;50101;49.438;11.098;2022-12-18T15:38:54;17.90;53.70
38237;DHT22;50101;49.438;11.098;2022-12-18T15:41:27;17.90;54.10
38237;DHT22;50101;49.438;11.098;2022-12-18T15:43:54;17.90;54.10
38237;DHT22;50101;49.438;11.098;2022-12-18T15:46:23;17.90;54.00
38237;DHT22;50101;49.438;11.098;2022-12-18T15:48:52;18.00;54.00
38237;DHT22;50101;49.438;11.098;2022-12-18T15:51:33;18.00;53.70
38237;DHT22;50101;49.438;11.098;2022-12-18T15:54:03;18.00;54.20
38237;DHT22;50101;49.438;11.098;2022-12-18T15:56:30;17.90;54.20
38237;DHT22;50101;49.438;11.098;2022-12-18T15:59:18;17.90;54.20
38237;DHT22;50101;49.438;11.098;2022-12-18T16:01:47;17.90;54.40
38237;DHT22;50101;49.438;11.098;2022-12-18T16:04:16;17.90;54.50
38237;DHT22;50101;49.438;11.098;2022-12-18T16:06:43;17.90;54.50
38237;DHT22;50101;49.438;11.098;2022-12-18T16:09:30;17.90;54.80
38237;DHT22;50101;49.438;11.098;2022-12-18T16:11:59;17.90;55.00
38237;DHT22;50101;49.438;11.098;2022-12-18T16:14:29;17.90;55.10
38237;DHT22;50101;49.438;11.098;2022-12-18T16:16:58;17.90;54.90
38237;DHT22;50101;49.438;11.098;2022-12-18T16:19:25;17.90;54.50
38237;DHT22;50101;49.438;11.098;2022-12-18T16:21:54;17.90;54.60
38237;DHT22;50101;49.438;11.098;2022-12-18T16:24:26;17.90;55.10
38237;DHT22;50101;49.438;11.098;2022-12-18T16:26:56;17.90;55.10
38237;DHT22;50101;49.438;11.098;2022-12-18T16:29:23;17.90;55.30
38237;DHT22;50101;49.438;11.098;2022-12-18T16:31:57;18.00;55.20
38237;DHT22;50101;49.438;11.098;2022-12-18T16:34:29;17.90;55.20
38237;DHT22;50101;49.438;11.098;2022-12-18T16:37:03;17.90;55.30
38237;DHT22;50101;49.438;11.098;2022-12-18T16:39:33;17.90;55.20
38237;DHT22;50101;49.438;11.098;2022-12-18T16:42:03;17.90;55.20
38237;DHT22;50101;49.438;11.098;2022-12-18T16:44:32;17.90;55.10
38237;DHT22;50101;49.438;11.098;2022-12-18T16:47:00;17.90;55.10
38237;DHT22;50101;49.438;11.098;2022-12-18T16:49:28;17.90;55.10
38237;DHT22;50101;49.438;11.098;2022-12-18T16:51:55;17.90;55.10
38237;DHT22;50101;49.438;11.098;2022-12-18T16:54:22;17.90;55.10
38237;DHT22;50101;49.438;11.098;2022-12-18T16:56:50;17.90;55.00
38237;DHT22;50101;49.438;11.098;2022-12-18T16:59:16;17.90;55.00
38237;DHT22;50101;49.438;11.098;2022-12-18T17:01:43;17.90;55.10
38237;DHT22;50101;49.438;11.098;2022-12-18T17:04:10;17.90;55.00
38237;DHT22;50101;49.438;11.098;2022-12-18T17:06:42;17.80;54.80
38237;DHT22;50101;49.438;11.098;2022-12-18T17:09:14;17.90;54.80
38237;DHT22;50101;49.438;11.098;2022-12-18T17:11:41;17.90;54.00
38237;DHT22;50101;49.438;11.098;2022-12-18T17:14:11;17.80;54.60
38237;DHT22;50101;49.438;11.098;2022-12-18T17:16:38;17.80;54.60
38237;DHT22;50101;49.438;11.098;2022-12-18T17:19:06;17.90;54.70
38237;DHT22;50101;49.438;11.098;2022-12-18T17:21:43;17.90;54.80
38237;DHT22;50101;49.438;11.098;2022-12-18T17:24:10;17.90;54.90
38237;DHT22;50101;49.438;11.098;2022-12-18T17:26:37;17.80;54.90
38237;DHT22;50101;49.438;11.098;2022-12-18T17:29:04;18.90;55.30
38237;DHT22;50101;49.438;11.098;2022-12-18T17:31:31;17.90;54.20
38237;DHT22;50101;49.438;11.098;2022-12-18T17:34:01;17.90;55.10
38237;DHT22;50101;49.438;11.098;2022-12-18T17:36:28;17.90;55.10
38237;DHT22;50101;49.438;11.098;2022-12-18T17:38:58;17.90;54.90